LFSG/EPL METAR and TAF weather

Enter ICAO airport designator
Station Type Date Time Source
LFSG METAR 2022/01/27 23:30 UTC NOAA

LFSG 272330Z AUTO 23007KT 9999 OVC006 01/00 Q1032


Station Type Date Time Source
LFSG Decoded METAR 2022/01/27 23:30 UTC NOAA

Station name not available
Jan 27, 2022 - 06:30 PM EST / 2022.01.27 2330 UTC
Wind: from the SW (230 degrees) at 8 MPH (7 KT):0
Visibility: greater than 7 mile(s):0
Sky conditions: overcast
Temperature: 33 F (1 C)
Windchill: 26 F (-3 C):1
Dew Point: 32 F (0 C)
Relative Humidity: 93%
Pressure (altimeter): 30.47 in. Hg (1032 hPa)
ob: LFSG 272330Z AUTO 23007KT 9999 OVC006 01/00 Q1032
cycle: 23

Station Type Date Time Source
LFSG TAF UTC NOAA

Error!

Example: see airport list